Aviation Digital Data Service (ADDS)

Output produced by METARs form (0623 UTC 30 May 2015)
found at http://aviationweather.gov/adds/metars/
 
KINT 300535Z 3006/3106 VRB05KT P6SM FEW050 SCT250 
     TEMPO 3009/3013 3SM BR BKN005 
     FM301800 19009KT P6SM SCT060